createdAt,value
2022-10-19T00:00:20.370Z,15.70
2022-10-19T00:02:48.267Z,18.93
2022-10-19T00:05:17.711Z,19.37
2022-10-19T00:07:45.726Z,10.57
2022-10-19T00:10:13.678Z,22.83
2022-10-19T00:12:41.615Z,14.13
2022-10-19T00:15:10.258Z,12.70
2022-10-19T00:17:38.151Z,23.43
2022-10-19T00:20:07.022Z,14.13
2022-10-19T00:22:36.416Z,12.30
2022-10-19T00:25:04.697Z,20.73
2022-10-19T00:27:32.659Z,17.20
2022-10-19T00:30:01.433Z,9.20
2022-10-19T00:32:29.363Z,12.37
2022-10-19T00:34:57.257Z,12.77
2022-10-19T00:37:25.177Z,11.47
2022-10-19T00:39:54.457Z,16.20
2022-10-19T00:42:22.453Z,10.07
2022-10-19T00:45:14.530Z,15.43
2022-10-19T00:47:43.684Z,12.90
2022-10-19T00:50:14.998Z,11.80
2022-10-19T00:52:43.332Z,14.23
2022-10-19T00:55:13.092Z,15.10
2022-10-19T00:57:41.488Z,14.53
2022-10-19T01:00:10.433Z,15.07
2022-10-19T01:02:38.402Z,12.17
2022-10-19T01:05:07.629Z,12.47
2022-10-19T01:07:35.909Z,8.83
2022-10-19T01:10:04.837Z,12.37
2022-10-19T01:12:52.264Z,10.67
2022-10-19T01:15:32.224Z,9.23
2022-10-19T01:18:07.382Z,10.37
2022-10-19T01:21:08.396Z,6.93
2022-10-19T01:23:56.864Z,7.80
2022-10-19T01:26:52.041Z,10.13
2022-10-19T01:29:35.213Z,9.13
2022-10-19T01:32:09.768Z,6.03
2022-10-19T01:34:44.234Z,7.60
2022-10-19T01:37:18.248Z,9.83
2022-10-19T01:39:54.176Z,8.20
2022-10-19T01:42:29.460Z,6.10
2022-10-19T01:45:05.339Z,7.33
2022-10-19T01:47:36.943Z,10.17
2022-10-19T01:50:11.123Z,7.87
2022-10-19T01:52:41.660Z,8.80
2022-10-19T01:55:12.261Z,9.03
2022-10-19T01:57:49.201Z,10.07
2022-10-19T02:00:18.311Z,11.13
2022-10-19T02:02:51.307Z,7.67
2022-10-19T02:05:22.916Z,15.40
2022-10-19T02:07:55.739Z,13.20
2022-10-19T02:10:24.853Z,8.87
2022-10-19T02:12:54.518Z,12.77
2022-10-19T02:15:24.853Z,8.87
2022-10-19T02:17:59.719Z,9.67
2022-10-19T02:20:29.165Z,11.73
2022-10-19T02:22:57.403Z,10.57
2022-10-19T02:25:26.575Z,9.97
2022-10-19T02:27:54.515Z,9.87
2022-10-19T02:30:22.752Z,6.73
2022-10-19T02:32:51.647Z,8.57
2022-10-19T02:35:21.039Z,9.77
2022-10-19T02:37:48.959Z,9.33
2022-10-19T02:40:16.983Z,8.57
2022-10-19T02:42:49.624Z,5.43
2022-10-19T02:45:23.890Z,10.30
2022-10-19T02:47:55.955Z,14.93
2022-10-19T02:50:25.683Z,11.27
2022-10-19T02:52:53.619Z,12.33
2022-10-19T02:55:21.696Z,7.23
2022-10-19T02:57:49.571Z,9.07
2022-10-19T03:00:17.543Z,9.80
2022-10-19T03:02:45.512Z,8.83
2022-10-19T03:05:13.406Z,9.37
2022-10-19T03:07:43.390Z,10.77
2022-10-19T03:10:11.370Z,12.40
2022-10-19T03:12:39.294Z,8.20
2022-10-19T03:15:08.306Z,9.27
2022-10-19T03:17:36.424Z,10.37
2022-10-19T03:20:05.278Z,11.17
2022-10-19T03:22:33.210Z,8.80
2022-10-19T03:25:02.515Z,9.40
2022-10-19T03:27:30.535Z,6.80
2022-10-19T03:29:58.534Z,9.30
2022-10-19T03:32:26.442Z,9.50
2022-10-19T03:34:54.330Z,6.57
2022-10-19T03:37:22.210Z,5.90
2022-10-19T03:39:50.101Z,6.07
2022-10-19T03:42:19.370Z,10.37
2022-10-19T03:44:47.262Z,10.50
2022-10-19T03:47:15.154Z,6.90
2022-10-19T03:49:43.614Z,12.20
2022-10-19T03:52:11.510Z,7.57
2022-10-19T03:54:39.565Z,6.23
2022-10-19T03:57:07.545Z,7.37
2022-10-19T03:59:36.809Z,8.67
2022-10-19T04:02:05.298Z,9.10
2022-10-19T04:04:33.205Z,6.23
2022-10-19T04:07:01.161Z,7.97
2022-10-19T04:09:29.054Z,10.77
2022-10-19T04:11:56.941Z,7.37
2022-10-19T04:14:39.050Z,7.70
2022-10-19T04:17:08.938Z,9.80
2022-10-19T04:19:36.859Z,7.70
2022-10-19T04:22:04.794Z,10.83
2022-10-19T04:24:32.753Z,11.43
2022-10-19T04:27:00.653Z,6.77
2022-10-19T04:29:30.097Z,6.27
2022-10-19T04:31:59.281Z,5.47
2022-10-19T04:34:28.646Z,11.10
2022-10-19T04:36:59.307Z,7.10
2022-10-19T04:39:27.411Z,8.83
2022-10-19T04:41:55.297Z,13.30
2022-10-19T04:46:52.077Z,6.73
2022-10-19T04:49:20.488Z,12.83
2022-10-19T04:51:49.744Z,12.87
2022-10-19T04:54:17.740Z,12.00
2022-10-19T04:56:45.644Z,9.13
2022-10-19T04:59:13.608Z,10.03
2022-10-19T05:01:46.422Z,9.63
2022-10-19T05:04:15.367Z,9.77
2022-10-19T05:06:43.664Z,9.03
2022-10-19T05:09:12.981Z,9.83
2022-10-19T05:11:40.958Z,11.17
2022-10-19T05:14:08.976Z,13.80
2022-10-19T05:16:36.960Z,5.17
2022-10-19T05:19:04.894Z,9.63
2022-10-19T05:21:33.046Z,9.33
2022-10-19T05:24:00.932Z,10.40
2022-10-19T05:26:30.299Z,6.10
2022-10-19T05:29:01.787Z,9.40
2022-10-19T05:31:31.726Z,6.03
2022-10-19T05:34:00.346Z,7.60
2022-10-19T05:36:34.328Z,4.90
2022-10-19T05:39:04.431Z,6.03
2022-10-19T05:41:34.000Z,4.63
2022-10-19T05:44:03.307Z,3.87
2022-10-19T05:46:32.508Z,5.60
2022-10-19T05:49:01.113Z,8.30
2022-10-19T05:51:29.736Z,6.87
2022-10-19T05:53:58.340Z,6.57
2022-10-19T05:56:28.255Z,12.07
2022-10-19T05:58:58.908Z,4.00
2022-10-19T06:01:28.097Z,6.03
2022-10-19T06:03:58.328Z,6.13
2022-10-19T06:06:27.630Z,7.67
2022-10-19T06:08:58.909Z,6.17
2022-10-19T06:11:28.469Z,4.57
2022-10-19T06:14:00.825Z,6.37
2022-10-19T06:16:29.893Z,6.00
2022-10-19T06:18:58.275Z,4.80
2022-10-19T06:21:28.864Z,3.97
2022-10-19T06:23:58.975Z,5.50
2022-10-19T06:26:27.983Z,6.83
2022-10-19T06:29:00.447Z,5.17
2022-10-19T06:31:28.691Z,2.67
2022-10-19T06:33:56.843Z,4.03
2022-10-19T06:36:26.839Z,4.10
2022-10-19T06:38:54.863Z,7.10
2022-10-19T06:41:22.907Z,5.23
2022-10-19T06:43:51.421Z,8.90
2022-10-19T06:46:23.371Z,5.10
2022-10-19T06:48:52.568Z,3.33
2022-10-19T06:51:21.304Z,4.57
2022-10-19T06:53:52.878Z,3.63
2022-10-19T06:56:24.557Z,7.40
2022-10-19T06:58:52.985Z,2.57
2022-10-19T07:01:22.779Z,3.43
2022-10-19T07:03:51.756Z,2.67
2022-10-19T07:06:19.760Z,3.20
2022-10-19T07:08:47.752Z,5.03
2022-10-19T07:11:18.104Z,8.03
2022-10-19T07:13:46.273Z,6.13
2022-10-19T07:16:19.825Z,2.40
2022-10-19T07:18:52.503Z,4.03
2022-10-19T07:21:22.861Z,4.90
2022-10-19T07:23:50.823Z,4.77
2022-10-19T07:26:23.449Z,3.40
2022-10-19T07:28:51.751Z,3.50
2022-10-19T07:31:21.462Z,4.53
2022-10-19T07:33:53.419Z,4.63
2022-10-19T07:36:21.808Z,4.87
2022-10-19T07:38:49.752Z,3.87
2022-10-19T07:41:19.390Z,4.07
2022-10-19T07:43:48.821Z,2.37
2022-10-19T07:46:18.737Z,3.20
2022-10-19T07:48:47.166Z,3.90
2022-10-19T07:51:18.111Z,3.60
2022-10-19T07:53:46.759Z,2.60
2022-10-19T07:56:16.558Z,5.10
2022-10-19T07:58:44.900Z,6.20
2022-10-19T08:01:14.776Z,2.77
2022-10-19T08:06:32.793Z,1.97
2022-10-19T08:09:00.928Z,2.53
2022-10-19T08:11:30.420Z,3.60
2022-10-19T08:13:59.556Z,3.60
2022-10-19T08:16:29.241Z,1.97
2022-10-19T08:18:59.891Z,1.97
2022-10-19T08:21:28.454Z,4.20
2022-10-19T08:23:57.809Z,2.03
2022-10-19T08:26:26.515Z,2.33
2022-10-19T08:28:54.666Z,2.10
2022-10-19T08:31:24.066Z,1.37
2022-10-19T08:33:52.232Z,2.63
2022-10-19T08:36:21.394Z,1.77
2022-10-19T08:38:50.378Z,1.67
2022-10-19T08:41:36.334Z,1.40
2022-10-19T08:44:20.313Z,3.53
2022-10-19T08:47:01.404Z,1.00
2022-10-19T08:49:32.759Z,1.00
2022-10-19T08:52:03.947Z,1.00
2022-10-19T08:54:38.930Z,1.00
2022-10-19T08:57:14.793Z,2.20
2022-10-19T08:59:47.981Z,1.87
2022-10-19T09:02:21.405Z,1.77
2022-10-19T09:04:55.984Z,1.10
2022-10-19T09:07:28.292Z,0.80
2022-10-19T09:09:59.577Z,1.30
2022-10-19T09:12:38.737Z,0.87
2022-10-19T09:15:11.518Z,2.10
2022-10-19T09:17:39.445Z,1.53
2022-10-19T09:20:16.951Z,1.83
2022-10-19T09:22:45.783Z,0.77
2022-10-19T09:25:21.250Z,0.80
2022-10-19T09:27:59.186Z,1.57
2022-10-19T09:30:28.993Z,1.63
2022-10-19T09:33:00.941Z,1.20
2022-10-19T09:35:32.940Z,2.57
2022-10-19T09:38:01.476Z,1.33
2022-10-19T09:40:31.399Z,1.00
2022-10-19T09:43:08.782Z,1.37
2022-10-19T09:45:42.266Z,1.33
2022-10-19T09:48:17.941Z,0.70
2022-10-19T09:50:46.519Z,2.33
2022-10-19T09:53:20.751Z,2.20
2022-10-19T09:55:52.407Z,1.17
2022-10-19T09:58:22.019Z,0.90
2022-10-19T10:00:51.576Z,0.83
2022-10-19T10:03:29.006Z,1.10
2022-10-19T10:05:59.180Z,1.63
2022-10-19T10:08:30.916Z,1.67
2022-10-19T10:11:07.784Z,2.60
2022-10-19T10:13:40.283Z,2.10
2022-10-19T10:16:10.572Z,2.20
2022-10-19T10:18:50.071Z,2.33
2022-10-19T10:21:25.572Z,1.73
2022-10-19T10:24:02.793Z,1.73
2022-10-19T10:26:30.798Z,3.53
2022-10-19T10:29:01.478Z,2.73
2022-10-19T10:31:31.222Z,0.83
2022-10-19T10:34:12.216Z,0.97
2022-10-19T10:36:52.463Z,1.40
2022-10-19T10:39:20.379Z,1.97
2022-10-19T10:41:49.743Z,2.87
2022-10-19T10:44:23.094Z,1.23
2022-10-19T10:46:56.769Z,1.97
2022-10-19T10:49:27.390Z,0.87
2022-10-19T10:51:57.963Z,0.87
2022-10-19T10:54:27.999Z,2.93
2022-10-19T10:57:12.280Z,1.30
2022-10-19T10:59:50.192Z,1.87
2022-10-19T11:02:36.557Z,1.03
2022-10-19T11:05:08.582Z,0.60
2022-10-19T11:07:37.800Z,0.80
2022-10-19T11:10:14.390Z,0.80
2022-10-19T11:12:47.701Z,2.17
2022-10-19T11:15:23.768Z,1.07
2022-10-19T11:18:02.776Z,2.10
2022-10-19T11:20:33.488Z,1.27
2022-10-19T11:23:12.328Z,2.07
2022-10-19T11:25:51.548Z,2.13
2022-10-19T11:28:32.105Z,0.60
2022-10-19T11:31:11.839Z,0.70
2022-10-19T11:33:54.792Z,0.70
2022-10-19T11:36:37.964Z,1.60
2022-10-19T11:39:26.456Z,2.73
2022-10-19T11:42:07.214Z,1.13
2022-10-19T11:44:47.910Z,4.07
2022-10-19T11:47:33.773Z,1.00
2022-10-19T11:50:13.782Z,2.73
2022-10-19T11:52:51.891Z,1.30
2022-10-19T11:55:34.603Z,0.53
2022-10-19T11:58:11.484Z,0.50
2022-10-19T12:00:47.058Z,1.07
2022-10-19T12:03:45.955Z,0.47
2022-10-19T12:06:22.102Z,3.03
2022-10-19T12:09:04.602Z,0.40
2022-10-19T12:11:45.264Z,0.50
2022-10-19T12:14:18.631Z,0.70
2022-10-19T12:16:51.217Z,0.70
2022-10-19T12:19:25.232Z,0.77
2022-10-19T12:21:56.172Z,0.63
2022-10-19T12:24:26.474Z,1.00
2022-10-19T12:26:55.894Z,0.63
2022-10-19T12:29:27.079Z,1.10
2022-10-19T12:31:56.198Z,0.53
2022-10-19T12:34:32.922Z,0.40
2022-10-19T12:37:09.442Z,0.63
2022-10-19T12:39:44.278Z,1.03
2022-10-19T12:42:22.650Z,0.70
2022-10-19T12:45:16.894Z,0.60
2022-10-19T12:48:19.030Z,1.27
2022-10-19T12:51:18.092Z,1.70
2022-10-19T12:53:48.922Z,0.57
2022-10-19T12:56:20.898Z,1.50
2022-10-19T12:58:54.130Z,0.70
2022-10-19T13:01:26.494Z,1.13
2022-10-19T13:04:10.096Z,0.77
2022-10-19T13:06:42.109Z,0.73
2022-10-19T13:09:22.217Z,0.70
2022-10-19T13:12:28.304Z,0.50
2022-10-19T13:14:57.350Z,1.37
2022-10-19T13:17:43.879Z,1.00
2022-10-19T13:20:48.993Z,2.03
2022-10-19T13:23:45.340Z,0.80
2022-10-19T13:26:32.839Z,0.67
2022-10-19T13:29:00.816Z,0.90
2022-10-19T13:31:30.607Z,3.40
2022-10-19T13:33:58.860Z,1.17
2022-10-19T13:36:28.509Z,0.97
2022-10-19T13:39:14.180Z,0.90
2022-10-19T13:41:57.087Z,0.70
2022-10-19T13:44:28.753Z,1.43
2022-10-19T13:50:44.105Z,1.10
2022-10-19T13:53:42.015Z,0.90
2022-10-19T13:56:33.609Z,0.57
2022-10-19T13:59:32.265Z,0.57
2022-10-19T14:02:32.103Z,1.60
2022-10-19T14:05:18.502Z,0.57
2022-10-19T14:07:54.180Z,0.70
2022-10-19T14:10:28.288Z,0.80
2022-10-19T14:13:01.870Z,1.80
2022-10-19T14:15:31.713Z,0.90
2022-10-19T14:18:03.726Z,1.53
2022-10-19T14:20:35.846Z,1.23
2022-10-19T14:23:19.381Z,1.07
2022-10-19T14:25:53.367Z,1.43
2022-10-19T14:28:23.796Z,1.60
2022-10-19T14:31:00.161Z,1.37
2022-10-19T14:33:29.297Z,1.90
2022-10-19T14:35:57.727Z,2.20
2022-10-19T14:38:32.791Z,1.50
2022-10-19T14:41:02.464Z,1.23
2022-10-19T14:43:31.788Z,1.20
2022-10-19T14:46:12.758Z,1.30
2022-10-19T14:48:42.586Z,3.73
2022-10-19T14:51:30.683Z,1.90
2022-10-19T14:54:03.740Z,1.97
2022-10-19T14:56:37.017Z,2.83
2022-10-19T14:59:12.860Z,2.53
2022-10-19T15:01:42.126Z,2.73
2022-10-19T15:04:10.102Z,3.10
2022-10-19T15:06:42.446Z,3.93
2022-10-19T15:09:30.428Z,2.37
2022-10-19T15:12:11.995Z,1.87
2022-10-19T15:14:40.277Z,6.77
2022-10-19T15:17:24.548Z,6.20
2022-10-19T15:19:53.655Z,7.13
2022-10-19T15:22:23.588Z,7.53
2022-10-19T15:25:03.015Z,4.63
2022-10-19T15:27:34.646Z,6.03
2022-10-19T15:30:05.134Z,7.03
2022-10-19T15:32:36.455Z,6.13
2022-10-19T15:35:13.584Z,5.47
2022-10-19T15:37:45.008Z,4.53
2022-10-19T15:40:19.006Z,2.90
2022-10-19T15:42:49.042Z,5.03
2022-10-19T15:45:31.276Z,4.77
2022-10-19T15:48:27.534Z,3.13
2022-10-19T15:50:56.722Z,2.27
2022-10-19T15:53:25.887Z,3.63
2022-10-19T15:55:53.866Z,2.23
2022-10-19T15:58:23.265Z,2.53
2022-10-19T16:00:51.150Z,3.10
2022-10-19T16:03:19.047Z,3.30
2022-10-19T16:05:47.231Z,6.00
2022-10-19T16:08:15.269Z,3.80
2022-10-19T16:10:43.178Z,4.37
2022-10-19T16:13:11.090Z,3.10
2022-10-19T16:15:40.374Z,4.87
2022-10-19T16:18:08.255Z,5.47
2022-10-19T16:20:36.241Z,7.37
2022-10-19T16:23:04.181Z,4.47
2022-10-19T16:25:32.058Z,3.53
2022-10-19T16:27:59.930Z,5.87
2022-10-19T16:30:28.031Z,5.53
2022-10-19T16:32:57.318Z,3.30
2022-10-19T16:35:25.391Z,3.50
2022-10-19T16:37:53.301Z,3.33
2022-10-19T16:40:21.217Z,4.30
2022-10-19T16:42:49.093Z,4.43
2022-10-19T16:45:17.139Z,4.03
2022-10-19T16:47:45.349Z,3.43
2022-10-19T16:50:14.601Z,2.73
2022-10-19T16:52:42.493Z,6.53
2022-10-19T16:55:10.729Z,7.87
2022-10-19T16:57:38.978Z,7.40
2022-10-19T17:00:09.482Z,6.00
2022-10-19T17:02:41.801Z,4.90
2022-10-19T17:05:12.321Z,6.57
2022-10-19T17:07:41.599Z,7.90
2022-10-19T17:10:10.298Z,7.97
2022-10-19T17:12:41.047Z,10.70
2022-10-19T17:15:40.852Z,7.93
2022-10-19T17:17:58.980Z,8.37
2022-10-19T17:20:26.932Z,9.10
2022-10-19T17:22:56.188Z,15.17
2022-10-19T17:25:24.100Z,11.97
2022-10-19T17:27:52.340Z,13.50
2022-10-19T17:30:20.273Z,15.93
2022-10-19T17:32:48.188Z,7.63
2022-10-19T17:35:16.218Z,7.10
2022-10-19T17:37:44.119Z,8.43
2022-10-19T17:40:13.944Z,13.03
2022-10-19T17:42:41.833Z,7.57
2022-10-19T17:45:11.129Z,9.27
2022-10-19T17:47:39.015Z,13.40
2022-10-19T17:50:07.696Z,17.70
2022-10-19T17:52:35.600Z,14.47
2022-10-19T17:55:19.014Z,47.40
2022-10-19T17:57:48.329Z,47.70
2022-10-19T18:00:16.507Z,14.50
2022-10-19T18:02:46.052Z,8.60
2022-10-19T18:05:14.005Z,7.93
2022-10-19T18:07:44.387Z,4.73
2022-10-19T18:10:12.331Z,9.47
2022-10-19T18:12:40.285Z,16.93
2022-10-19T18:15:10.264Z,19.90
2022-10-19T18:17:38.397Z,21.03
2022-10-19T18:20:07.903Z,27.33
2022-10-19T18:22:35.847Z,19.60
2022-10-19T18:25:04.075Z,13.53
2022-10-19T18:27:32.026Z,14.63
2022-10-19T18:30:00.027Z,47.03
2022-10-19T18:32:29.269Z,56.67
2022-10-19T18:34:57.183Z,60.63
2022-10-19T18:37:25.124Z,43.00
2022-10-19T18:39:53.012Z,30.47
2022-10-19T18:42:20.919Z,36.90
2022-10-19T18:44:48.827Z,32.73
2022-10-19T18:47:16.745Z,28.43
2022-10-19T18:49:45.968Z,30.50
2022-10-19T18:52:13.895Z,35.07
2022-10-19T18:54:41.807Z,41.87
2022-10-19T18:57:09.717Z,23.73
2022-10-19T18:59:37.627Z,16.40
2022-10-19T19:02:07.838Z,20.37
2022-10-19T19:04:41.639Z,20.80
2022-10-19T19:07:10.878Z,23.17
2022-10-19T19:09:39.118Z,15.70
2022-10-19T19:12:07.228Z,15.83
2022-10-19T19:14:35.281Z,35.77
2022-10-19T19:17:03.221Z,45.93
2022-10-19T19:19:31.221Z,44.57
2022-10-19T19:22:05.105Z,40.43
2022-10-19T19:24:38.034Z,32.33
2022-10-19T19:27:05.922Z,33.27
2022-10-19T19:29:33.814Z,23.70
2022-10-19T19:32:01.774Z,29.87
2022-10-19T19:34:29.651Z,26.10
2022-10-19T19:36:57.554Z,23.77
2022-10-19T19:39:25.448Z,16.47
2022-10-19T19:41:54.674Z,16.17
2022-10-19T19:44:22.677Z,16.07
2022-10-19T19:46:50.577Z,15.97
2022-10-19T19:49:18.484Z,13.40
2022-10-19T19:51:46.377Z,18.13
2022-10-19T19:54:14.305Z,17.87
2022-10-19T19:56:43.145Z,15.53
2022-10-19T19:59:13.776Z,22.30
2022-10-19T20:01:42.348Z,21.27
2022-10-19T20:04:11.197Z,15.90
2022-10-19T20:06:40.281Z,23.57
2022-10-19T20:09:10.794Z,20.77
2022-10-19T20:11:42.365Z,27.37
2022-10-19T20:14:13.280Z,24.23
2022-10-19T20:16:41.360Z,14.77
2022-10-19T20:19:10.945Z,11.47
2022-10-19T20:21:39.522Z,6.13
2022-10-19T20:24:08.246Z,7.80
2022-10-19T20:26:36.177Z,9.60
2022-10-19T20:29:05.194Z,10.23
2022-10-19T20:31:39.490Z,11.13
2022-10-19T20:34:13.531Z,13.43
2022-10-19T20:36:41.426Z,12.67
2022-10-19T20:39:09.698Z,19.03
2022-10-19T20:41:37.617Z,8.37
2022-10-19T20:44:05.813Z,10.47
2022-10-19T20:46:37.061Z,12.07
2022-10-19T20:49:05.194Z,12.03
2022-10-19T20:51:36.543Z,4.97
2022-10-19T20:54:06.838Z,6.27
2022-10-19T20:56:36.060Z,13.07
2022-10-19T20:59:06.287Z,12.50
2022-10-19T21:01:38.213Z,9.97
2022-10-19T21:04:08.957Z,9.03
2022-10-19T21:06:40.463Z,10.80
2022-10-19T21:09:09.311Z,11.07
2022-10-19T21:11:38.946Z,12.80
2022-10-19T21:14:09.096Z,14.57
2022-10-19T21:16:38.963Z,7.70
2022-10-19T21:19:09.026Z,10.23
2022-10-19T21:21:38.928Z,11.13
2022-10-19T21:24:08.597Z,13.97
2022-10-19T21:26:37.703Z,10.90
2022-10-19T21:29:07.370Z,9.77
2022-10-19T21:31:35.255Z,10.77
2022-10-19T21:34:07.031Z,16.97
2022-10-19T21:36:35.246Z,10.80
2022-10-19T21:39:03.194Z,13.00
2022-10-19T21:41:32.168Z,15.00
2022-10-19T21:44:00.532Z,14.13
2022-10-19T21:46:28.778Z,12.33
2022-10-19T21:48:57.292Z,13.13
2022-10-19T21:51:35.874Z,15.00
2022-10-19T21:54:04.308Z,11.97
2022-10-19T21:56:32.515Z,12.43
2022-10-19T21:59:00.565Z,11.33
2022-10-19T22:01:30.456Z,11.83
2022-10-19T22:03:59.464Z,11.90
2022-10-19T22:06:30.926Z,16.17
2022-10-19T22:08:59.518Z,15.27
2022-10-19T22:11:28.324Z,19.90
2022-10-19T22:13:57.043Z,15.20
2022-10-19T22:16:26.131Z,22.80
2022-10-19T22:18:54.765Z,20.13
2022-10-19T22:21:25.046Z,22.00
2022-10-19T22:23:56.292Z,16.80
2022-10-19T22:26:26.773Z,26.13
2022-10-19T22:28:56.664Z,20.70
2022-10-19T22:31:25.160Z,27.23
2022-10-19T22:33:53.105Z,26.17
2022-10-19T22:36:21.127Z,22.53
2022-10-19T22:38:49.031Z,20.73
2022-10-19T22:41:18.864Z,19.20
2022-10-19T22:43:46.749Z,17.60
2022-10-19T22:46:14.635Z,24.03
2022-10-19T22:48:42.511Z,20.13
2022-10-19T22:51:10.415Z,23.17
2022-10-19T22:53:38.295Z,26.30
2022-10-19T22:56:07.037Z,25.70
2022-10-19T22:58:36.303Z,31.30
2022-10-19T23:01:06.992Z,29.83
2022-10-19T23:03:35.324Z,46.60
2022-10-19T23:06:03.281Z,68.23
2022-10-19T23:08:31.191Z,52.80
2022-10-19T23:10:59.102Z,51.30
2022-10-19T23:13:27.022Z,29.53
2022-10-19T23:15:56.325Z,32.23
2022-10-19T23:18:24.241Z,25.17
2022-10-19T23:20:55.875Z,35.33
2022-10-19T23:23:25.151Z,36.03
2022-10-19T23:26:00.485Z,32.60
2022-10-19T23:28:29.005Z,27.57
2022-10-19T23:30:58.916Z,28.17
2022-10-19T23:33:27.447Z,25.20
2022-10-19T23:35:55.353Z,21.77
2022-10-19T23:38:23.230Z,21.60
2022-10-19T23:40:51.105Z,17.90
2022-10-19T23:43:19.005Z,16.07
2022-10-19T23:45:46.898Z,17.73
2022-10-19T23:48:16.177Z,19.70
2022-10-19T23:50:44.080Z,17.73
2022-10-19T23:53:12.524Z,21.27
2022-10-19T23:55:40.418Z,22.03
2022-10-19T23:58:08.560Z,23.10
